Time;durP1;ratioP1;P1;durP2;ratioP2;P2;SDS_P1;SDS_P2;PMS_P1;PMS_P2;Temp;Humidity;BMP_temperature;BMP_pressure;BME280_temperature;BME280_humidity;BME280_pressure;Samples;Min_cycle;Max_cycle;Signal;HPM_P1;HPM_P2
2021/05/01 04:12:56;;;;;;;2.08;1.00;;;1.20;74.00;;;;;;5050609;28;20049;-68
2021/05/01 04:15:23;;;;;;;0.80;0.80;;;1.60;73.50;;;;;;5051743;28;20043;-68
2021/05/01 04:17:48;;;;;;;3.28;0.98;;;2.10;71.50;;;;;;5054877;28;20025;-67
2021/05/01 04:20:15;;;;;;;3.03;0.80;;;2.60;70.00;;;;;;5055765;28;20031;-68
2021/05/01 04:22:40;;;;;;;1.42;1.10;;;3.00;68.50;;;;;;5055450;28;20081;-67
2021/05/01 04:25:07;;;;;;;0.75;0.65;;;3.50;66.80;;;;;;5055440;28;20029;-68
2021/05/01 04:27:33;;;;;;;1.67;0.80;;;3.90;65.70;;;;;;5055350;28;20017;-67
2021/05/01 04:29:59;;;;;;;1.92;0.88;;;4.20;64.10;;;;;;5055547;28;20036;-69
2021/05/01 04:32:24;;;;;;;1.70;1.20;;;4.50;63.10;;;;;;5055294;28;20546;-69
2021/05/01 04:34:50;;;;;;;1.85;0.82;;;4.90;62.10;;;;;;5055580;28;20098;-69
2021/05/01 04:37:16;;;;;;;0.55;0.55;;;5.20;61.10;;;;;;5055503;28;20389;-65
2021/05/01 04:39:42;;;;;;;1.67;0.77;;;5.60;72.70;;;;;;5055447;28;20048;-67
2021/05/01 04:42:08;;;;;;;1.60;0.80;;;7.20;66.80;;;;;;5055275;28;20035;-66
2021/05/01 04:44:34;;;;;;;4.68;1.33;;;7.10;57.80;;;;;;5054855;28;20059;-69
2021/05/01 04:47:00;;;;;;;3.47;0.90;;;6.90;56.80;;;;;;5054609;28;20029;-67
2021/05/01 04:49:25;;;;;;;2.38;0.90;;;6.90;56.90;;;;;;5054543;28;20055;-67
2021/05/01 04:51:51;;;;;;;1.75;0.90;;;7.00;56.30;;;;;;5057992;28;20032;-68
2021/05/01 04:54:17;;;;;;;1.15;0.80;;;7.00;56.30;;;;;;5054479;28;20108;-68
2021/05/01 04:56:43;;;;;;;2.00;0.70;;;7.20;56.40;;;;;;5054400;28;20079;-68
2021/05/01 04:59:08;;;;;;;1.65;0.77;;;7.30;55.70;;;;;;5054030;28;20025;-68
2021/05/01 05:01:35;;;;;;;5.75;0.88;;;7.50;56.20;;;;;;5054143;28;20021;-68
2021/05/01 05:04:01;;;;;;;3.33;1.00;;;7.90;55.30;;;;;;5054382;28;20025;-68
2021/05/01 05:06:27;;;;;;;2.20;0.77;;;8.10;54.20;;;;;;5054708;28;20128;-69
2021/05/01 05:08:53;;;;;;;2.65;0.70;;;8.30;54.20;;;;;;5054496;28;20481;-68
2021/05/01 05:11:18;;;;;;;1.35;0.80;;;8.30;53.60;;;;;;5054070;28;20064;-68
2021/05/01 05:13:44;;;;;;;1.38;0.80;;;8.50;53.70;;;;;;5054022;28;20083;-68
2021/05/01 05:16:10;;;;;;;2.22;0.73;;;8.60;53.10;;;;;;5054369;28;20033;-68
2021/05/01 05:18:36;;;;;;;1.20;0.60;;;8.80;53.20;;;;;;5051021;28;20086;-68
2021/05/01 05:21:02;;;;;;;2.85;0.82;;;9.10;52.60;;;;;;5054508;28;20108;-67
2021/05/01 05:23:28;;;;;;;1.67;0.60;;;9.20;51.70;;;;;;5054591;28;20090;-68
2021/05/01 05:25:54;;;;;;;1.55;0.65;;;9.30;50.90;;;;;;5054318;28;20028;-67
2021/05/01 05:28:20;;;;;;;0.93;0.55;;;9.40;51.20;;;;;;5053673;28;20029;-67
2021/05/01 05:30:46;;;;;;;3.03;0.75;;;9.70;50.90;;;;;;5054397;28;20037;-68
2021/05/01 05:33:11;;;;;;;2.17;0.50;;;9.80;50.60;;;;;;5054335;28;20040;-68
2021/05/01 05:35:37;;;;;;;2.78;0.60;;;9.90;50.20;;;;;;5053972;28;20562;-67
2021/05/01 05:38:03;;;;;;;1.55;0.65;;;9.90;49.80;;;;;;5054101;28;20051;-68
2021/05/01 05:40:29;;;;;;;1.75;0.60;;;10.10;50.10;;;;;;5054093;28;20064;-68
2021/05/01 05:42:55;;;;;;;1.48;0.70;;;10.20;49.20;;;;;;5054092;28;20433;-68
2021/05/01 05:45:26;;;;;;;1.30;0.50;;;10.10;49.10;;;;;;5053873;28;20032;-67
2021/05/01 05:47:52;;;;;;;2.42;0.60;;;10.10;49.30;;;;;;5054265;28;20047;-68
2021/05/01 05:50:18;;;;;;;1.65;0.63;;;10.10;49.00;;;;;;5054005;28;20029;-68
2021/05/01 05:52:44;;;;;;;1.02;0.50;;;10.10;49.00;;;;;;5053793;28;20021;-68
2021/05/01 05:55:11;;;;;;;1.90;0.60;;;10.10;48.70;;;;;;5053786;28;20021;-68
2021/05/01 05:57:38;;;;;;;1.50;0.60;;;10.30;49.30;;;;;;5053939;28;20029;-69
2021/05/01 06:00:06;;;;;;;1.52;0.70;;;10.20;48.20;;;;;;5053975;28;20028;-69
2021/05/01 06:02:32;;;;;;;1.20;0.60;;;10.00;48.20;;;;;;5053843;28;20022;-67
2021/05/01 06:05:11;;;;;;;1.67;0.70;;;10.00;48.60;;;;;;5053880;28;20025;-68
2021/05/01 06:07:52;;;;;;;3.35;0.65;;;10.20;48.40;;;;;;5053576;28;20029;-68
2021/05/01 06:10:18;;;;;;;6.03;0.60;;;10.30;48.10;;;;;;5053897;28;20158;-68
2021/05/01 06:12:45;;;;;;;3.90;0.50;;;10.30;48.80;;;;;;5053328;28;20055;-65
2021/05/01 06:15:16;;;;;;;2.60;0.70;;;10.50;48.10;;;;;;5053587;28;20025;-67
2021/05/01 06:17:44;;;;;;;1.88;0.60;;;11.50;57.80;;;;;;5053449;28;20136;-68
2021/05/01 06:20:12;;;;;;;0.70;0.47;;;12.50;55.50;;;;;;5053380;28;20111;-69
2021/05/01 06:22:39;;;;;;;0.40;0.40;;;12.40;44.80;;;;;;5052475;28;20142;-71
2021/05/01 06:25:08;;;;;;;0.75;0.43;;;11.60;43.70;;;;;;5048093;28;20098;-70
2021/05/01 06:27:34;;;;;;;0.60;0.40;;;11.10;44.50;;;;;;5052458;28;20067;-69
2021/05/01 06:30:01;;;;;;;1.00;0.40;;;10.70;44.40;;;;;;5052608;28;20029;-70
2021/05/01 06:32:27;;;;;;;2.67;0.52;;;10.40;44.00;;;;;;5051954;28;20033;-66
2021/05/01 06:34:55;;;;;;;3.42;0.60;;;10.20;45.40;;;;;;5052218;28;20109;-68
2021/05/01 06:37:23;;;;;;;1.05;0.40;;;9.90;45.30;;;;;;5049973;28;20033;-65
2021/05/01 06:39:50;;;;;;;0.98;0.47;;;10.20;54.20;;;;;;5051485;28;20032;-66
2021/05/01 06:42:23;;;;;;;1.65;0.50;;;11.20;55.00;;;;;;5051934;28;20059;-66
2021/05/01 06:44:56;;;;;;;1.42;0.50;;;12.00;54.20;;;;;;5052039;28;20039;-66
2021/05/01 06:47:27;;;;;;;2.72;0.60;;;12.40;52.80;;;;;;5050056;28;20067;-66
2021/05/01 06:50:09;;;;;;;1.90;0.40;;;12.60;51.20;;;;;;5052320;28;20017;-64
2021/05/01 06:52:46;;;;;;;2.60;0.40;;;12.60;52.50;;;;;;5052279;28;20029;-69
2021/05/01 06:55:14;;;;;;;0.77;0.50;;;12.00;44.50;;;;;;5052124;28;20029;-68
2021/05/01 06:57:53;;;;;;;1.45;0.50;;;11.10;44.00;;;;;;5052207;28;20028;-67
2021/05/01 07:00:21;;;;;;;2.75;0.40;;;10.50;44.30;;;;;;5052215;28;20396;-67
2021/05/01 07:03:09;;;;;;;0.40;0.40;;;10.20;44.80;;;;;;5051790;28;20112;-67
2021/05/01 07:05:35;;;;;;;0.55;0.40;;;9.80;43.90;;;;;;5051838;28;20379;-68
2021/05/01 07:08:01;;;;;;;0.40;0.40;;;9.60;44.80;;;;;;5052182;28;20029;-67
2021/05/01 07:10:27;;;;;;;0.55;0.50;;;9.40;44.90;;;;;;5052126;28;20362;-67
2021/05/01 07:12:55;;;;;;;0.40;0.40;;;9.40;45.40;;;;;;5051901;28;20056;-66
2021/05/01 07:15:21;;;;;;;1.05;0.70;;;9.60;51.50;;;;;;5051865;28;20036;-66
2021/05/01 07:17:51;;;;;;;1.40;0.73;;;9.90;48.00;;;;;;5051743;28;20032;-66
2021/05/01 07:20:18;;;;;;;0.82;0.40;;;9.50;46.20;;;;;;5052210;28;20079;-67
2021/05/01 07:22:43;;;;;;;3.80;0.50;;;9.30;46.40;;;;;;5051811;28;20116;-68
2021/05/01 07:25:11;;;;;;;6.80;1.20;;;9.30;46.50;;;;;;5051680;28;20092;-68
2021/05/01 07:28:01;;;;;;;1.30;0.40;;;9.20;46.80;;;;;;5052013;28;20041;-69
2021/05/01 07:30:30;;;;;;;0.83;0.50;;;9.10;46.30;;;;;;5051669;28;20025;-67
2021/05/01 07:33:22;;;;;;;0.47;0.47;;;8.80;46.30;;;;;;5052101;28;20330;-69
2021/05/01 07:35:50;;;;;;;1.52;0.47;;;8.60;47.00;;;;;;5051560;28;20025;-68
2021/05/01 07:38:17;;;;;;;0.85;0.52;;;8.40;47.40;;;;;;5051698;28;20377;-68
2021/05/01 07:40:43;;;;;;;3.42;0.38;;;8.30;47.00;;;;;;5051514;28;20033;-68
2021/05/01 07:43:14;;;;;;;0.50;0.47;;;8.20;47.20;;;;;;5051840;28;20023;-68
2021/05/01 07:45:40;;;;;;;0.60;0.30;;;8.30;48.30;;;;;;5051735;28;20130;-66
2021/05/01 07:48:09;;;;;;;0.55;0.30;;;8.30;47.70;;;;;;5051520;28;20640;-66
2021/05/01 07:50:35;;;;;;;1.33;0.40;;;8.40;47.10;;;;;;5051024;28;20043;-71
2021/05/01 07:53:02;;;;;;;1.10;0.52;;;8.20;45.50;;;;;;5051386;28;20025;-67
2021/05/01 07:55:29;;;;;;;4.45;0.57;;;7.90;46.30;;;;;;5048843;28;20059;-68
2021/05/01 07:57:54;;;;;;;6.30;0.60;;;8.10;54.60;;;;;;5047820;28;20071;-67
2021/05/01 08:00:21;;;;;;;0.88;0.60;;;8.90;51.80;;;;;;5050216;28;20029;-67
2021/05/01 08:02:47;;;;;;;0.73;0.60;;;8.80;47.10;;;;;;5050613;28;20487;-67
2021/05/01 08:05:15;;;;;;;2.97;0.50;;;8.20;45.80;;;;;;5051162;28;20372;-67
2021/05/01 08:07:41;;;;;;;3.25;1.05;;;7.70;46.50;;;;;;5050768;28;20427;-67
2021/05/01 08:10:08;;;;;;;0.77;0.50;;;7.40;47.30;;;;;;5051069;28;20451;-67
2021/05/01 08:12:34;;;;;;;2.05;0.60;;;7.20;47.10;;;;;;5050668;28;20045;-67
2021/05/01 08:14:59;;;;;;;0.95;0.50;;;7.00;47.70;;;;;;5051108;28;20047;-67
2021/05/01 08:17:25;;;;;;;1.98;0.47;;;6.80;47.80;;;;;;5050732;28;20024;-67
2021/05/01 08:19:55;;;;;;;3.70;0.75;;;6.60;47.80;;;;;;5050518;28;20025;-67
2021/05/01 08:22:22;;;;;;;1.13;0.68;;;6.60;49.50;;;;;;5050974;28;20033;-66
2021/05/01 08:24:48;;;;;;;1.50;0.60;;;6.60;48.40;;;;;;5050868;28;20112;-67
2021/05/01 08:27:14;;;;;;;4.00;1.10;;;6.70;48.20;;;;;;5051338;28;20486;-67
2021/05/01 08:29:40;;;;;;;1.42;0.60;;;6.70;47.70;;;;;;5050274;28;20068;-67
2021/05/01 08:32:06;;;;;;;1.10;0.60;;;6.80;46.90;;;;;;5051781;28;20028;-67
2021/05/01 08:34:32;;;;;;;1.10;0.60;;;6.80;46.50;;;;;;5051168;28;20028;-67
2021/05/01 08:36:58;;;;;;;3.40;0.43;;;6.80;46.40;;;;;;5048475;28;20163;-68
2021/05/01 08:39:23;;;;;;;0.63;0.60;;;6.80;45.30;;;;;;5050891;28;20525;-69
2021/05/01 08:41:49;;;;;;;0.63;0.50;;;6.90;46.40;;;;;;5050327;28;20116;-67
2021/05/01 08:44:15;;;;;;;2.03;0.50;;;7.00;46.00;;;;;;5050123;28;20029;-68
2021/05/01 08:46:41;;;;;;;1.75;0.40;;;7.20;45.70;;;;;;5050752;28;20029;-68
2021/05/01 08:49:09;;;;;;;1.38;0.50;;;7.20;44.30;;;;;;5050518;28;20029;-69
2021/05/01 08:51:36;;;;;;;0.68;0.50;;;7.00;42.50;;;;;;5048209;28;20039;-69
2021/05/01 08:54:03;;;;;;;1.10;0.60;;;6.80;42.90;;;;;;5050619;28;20028;-69
2021/05/01 08:56:29;;;;;;;1.58;0.82;;;6.70;43.50;;;;;;5050313;28;20024;-69
2021/05/01 08:58:57;;;;;;;0.73;0.40;;;6.80;44.00;;;;;;5051025;28;20108;-71
2021/05/01 09:01:24;;;;;;;1.02;0.50;;;7.00;44.30;;;;;;5051120;28;20056;-72
2021/05/01 09:03:51;;;;;;;3.22;0.63;;;7.10;44.40;;;;;;5054116;28;20029;-67
2021/05/01 09:06:23;;;;;;;0.50;0.30;;;7.20;45.60;;;;;;5054419;28;20029;-69
2021/05/01 09:09:00;;;;;;;0.50;0.50;;;7.60;45.30;;;;;;5053480;28;20032;-69
2021/05/01 09:11:52;;;;;;;1.27;0.60;;;7.60;43.60;;;;;;5054437;28;20029;-69
2021/05/01 09:14:17;;;;;;;0.60;0.60;;;7.60;43.80;;;;;;5053740;28;20116;-70
2021/05/01 09:16:55;;;;;;;0.68;0.60;;;7.50;43.70;;;;;;5054731;28;20056;-70
2021/05/01 09:19:29;;;;;;;0.30;0.30;;;7.40;43.60;;;;;;5056112;28;20090;-70
2021/05/01 09:22:03;;;;;;;1.67;0.65;;;7.30;42.90;;;;;;5055139;28;20108;-69
2021/05/01 09:24:29;;;;;;;0.77;0.47;;;7.40;44.90;;;;;;5043345;28;20035;-70
2021/05/01 09:26:55;;;;;;;1.08;0.40;;;7.50;45.30;;;;;;5054544;28;20112;-70
2021/05/01 09:29:31;;;;;;;3.67;0.63;;;7.60;43.70;;;;;;5054062;28;20032;-70
2021/05/01 09:31:57;;;;;;;1.13;0.60;;;7.50;43.00;;;;;;5052127;28;20507;-69
2021/05/01 09:34:44;;;;;;;1.85;0.60;;;7.50;43.70;;;;;;5054003;28;20059;-69
2021/05/01 09:37:11;;;;;;;0.52;0.52;;;7.50;43.30;;;;;;5053120;28;20064;-70
2021/05/01 09:39:47;;;;;;;1.02;0.60;;;7.50;43.50;;;;;;5053663;28;20047;-70
2021/05/01 09:42:15;;;;;;;2.63;0.47;;;7.60;43.80;;;;;;5053533;28;20052;-70
2021/05/01 09:44:42;;;;;;;0.82;0.60;;;7.60;43.00;;;;;;5033324;28;20032;-67
2021/05/01 09:47:18;;;;;;;0.60;0.50;;;7.60;42.20;;;;;;5039214;28;20048;-68
2021/05/01 09:49:46;;;;;;;0.43;0.40;;;7.60;43.30;;;;;;5053143;28;20013;-67
2021/05/01 09:52:16;;;;;;;0.90;0.63;;;7.60;42.80;;;;;;5053820;28;20395;-68
2021/05/01 09:54:46;;;;;;;0.82;0.50;;;7.60;43.20;;;;;;5053478;28;20025;-68
2021/05/01 09:57:13;;;;;;;0.50;0.50;;;7.50;43.20;;;;;;5053503;28;20480;-68
2021/05/01 09:59:41;;;;;;;2.17;0.60;;;7.30;42.20;;;;;;5053256;28;20385;-67
2021/05/01 10:02:09;;;;;;;1.45;0.60;;;7.20;45.30;;;;;;5050190;28;20025;-67
2021/05/01 10:04:35;;;;;;;1.10;0.50;;;8.20;53.40;;;;;;5053062;28;20366;-67
2021/05/01 10:07:11;;;;;;;0.63;0.55;;;8.10;44.30;;;;;;5053544;28;20036;-67
2021/05/01 10:09:42;;;;;;;1.02;0.50;;;7.90;43.30;;;;;;5053326;28;20108;-68
2021/05/01 10:12:11;;;;;;;1.55;0.52;;;7.70;43.00;;;;;;5053719;28;20072;-67
2021/05/01 10:14:44;;;;;;;1.17;0.50;;;7.70;43.10;;;;;;5053209;28;20068;-67
2021/05/01 10:17:12;;;;;;;0.40;0.40;;;7.70;43.00;;;;;;5053910;28;20032;-67
2021/05/01 10:20:02;;;;;;;0.50;0.50;;;7.50;41.80;;;;;;5053374;28;20103;-67
2021/05/01 10:22:34;;;;;;;13.95;0.70;;;7.20;42.70;;;;;;5052693;28;20029;-67
2021/05/01 10:25:05;;;;;;;1.20;0.60;;;7.30;49.40;;;;;;5052921;28;20055;-69
2021/05/01 10:27:58;;;;;;;0.50;0.50;;;7.70;44.80;;;;;;5053053;28;20029;-68
2021/05/01 10:35:47;;;;;;;0.68;0.60;;;7.80;42.60;;;;;;5052964;28;20056;-69
2021/05/01 10:38:20;;;;;;;2.33;0.50;;;7.90;43.10;;;;;;5050431;28;20116;-68
2021/05/01 10:40:51;;;;;;;0.43;0.43;;;8.00;43.30;;;;;;5050577;28;20563;-68
2021/05/01 10:43:23;;;;;;;3.00;0.68;;;8.00;41.50;;;;;;5050877;28;20021;-65
2021/05/01 10:45:51;;;;;;;7.68;1.10;;;8.70;56.10;;;;;;5064865;28;20491;-65
2021/05/01 10:48:17;;;;;;;1.58;0.70;;;9.90;57.90;;;;;;5052099;28;20025;-66
2021/05/01 10:50:43;;;;;;;1.10;0.70;;;10.60;56.60;;;;;;5051927;28;20075;-66
2021/05/01 10:53:21;;;;;;;6.47;1.02;;;11.10;58.00;;;;;;5052420;28;20354;-66
2021/05/01 10:55:49;;;;;;;3.22;1.13;;;11.60;58.30;;;;;;5051633;28;20515;-66
2021/05/01 10:58:36;;;;;;;2.63;0.80;;;12.00;58.10;;;;;;5050724;28;20025;-66
2021/05/01 11:01:14;;;;;;;4.80;0.70;;;12.40;57.50;;;;;;5051805;28;20507;-69
2021/05/01 11:03:48;;;;;;;3.90;0.60;;;12.60;49.30;;;;;;5048722;28;20497;-69
2021/05/01 11:06:21;;;;;;;0.75;0.43;;;11.60;41.60;;;;;;5051461;28;20021;-69
2021/05/01 11:09:04;;;;;;;3.88;0.90;;;10.60;40.40;;;;;;5051613;28;20075;-67
2021/05/01 11:11:33;;;;;;;1.17;0.60;;;9.80;43.50;;;;;;5038520;28;20033;-70
2021/05/01 11:14:07;;;;;;;1.90;0.50;;;10.60;48.60;;;;;;5051924;28;20033;-70
2021/05/01 11:16:48;;;;;;;1.70;0.50;;;10.10;40.70;;;;;;5051638;28;20059;-69
2021/05/01 11:19:14;;;;;;;2.42;0.50;;;9.70;40.40;;;;;;5052526;28;20029;-70
2021/05/01 11:21:44;;;;;;;0.95;0.40;;;9.80;47.30;;;;;;5052231;28;20037;-70
2021/05/01 11:24:11;;;;;;;0.40;0.40;;;9.50;38.70;;;;;;5050989;28;20090;-70
2021/05/01 11:26:48;;;;;;;0.40;0.40;;;9.10;38.70;;;;;;5048355;28;20036;-69
2021/05/01 11:29:15;;;;;;;0.63;0.45;;;8.90;39.70;;;;;;5051755;28;20025;-69
2021/05/01 11:31:43;;;;;;;0.68;0.50;;;8.80;39.50;;;;;;5051505;28;20068;-69
2021/05/01 11:34:12;;;;;;;2.92;0.68;;;8.50;40.00;;;;;;5052037;28;20028;-69
2021/05/01 11:36:58;;;;;;;3.38;0.57;;;8.50;41.30;;;;;;5051700;28;20055;-68
2021/05/01 11:39:26;;;;;;;0.70;0.55;;;8.60;42.20;;;;;;5051779;28;20485;-69
2021/05/01 11:41:52;;;;;;;25.00;1.73;;;8.60;41.20;;;;;;5051467;28;20029;-68
2021/05/01 11:44:18;;;;;;;1.38;0.77;;;9.10;55.30;;;;;;5051418;28;20032;-69
2021/05/01 11:47:04;;;;;;;2.60;0.60;;;9.40;42.60;;;;;;5051976;28;20029;-68
2021/05/01 11:49:31;;;;;;;3.25;0.50;;;9.10;40.10;;;;;;5051648;28;20415;-68
2021/05/01 11:52:13;;;;;;;9.65;0.70;;;8.70;39.30;;;;;;5051724;28;20036;-68
2021/05/01 11:55:05;;;;;;;2.00;0.60;;;8.30;39.80;;;;;;5052175;28;20021;-68
2021/05/01 11:57:57;;;;;;;0.50;0.45;;;8.10;39.80;;;;;;5052027;28;20025;-68
2021/05/01 12:00:35;;;;;;;1.23;0.50;;;7.90;39.40;;;;;;5047855;28;20055;-68
2021/05/01 12:03:06;;;;;;;3.40;0.60;;;7.80;40.20;;;;;;5051666;28;20025;-68
2021/05/01 12:05:37;;;;;;;0.63;0.60;;;7.70;40.40;;;;;;5051649;28;20021;-68
2021/05/01 12:08:09;;;;;;;0.75;0.57;;;7.80;40.80;;;;;;5051697;28;20033;-68
2021/05/01 12:11:04;;;;;;;1.15;0.60;;;7.70;39.40;;;;;;5051664;28;20057;-68
2021/05/01 12:13:38;;;;;;;1.10;0.60;;;7.70;39.80;;;;;;5046705;28;20056;-68
2021/05/01 12:16:06;;;;;;;0.55;0.50;;;7.80;40.30;;;;;;5051828;28;20025;-68
2021/05/01 12:18:41;;;;;;;0.57;0.57;;;7.80;40.40;;;;;;5051729;28;20039;-68
2021/05/01 12:21:07;;;;;;;0.50;0.50;;;7.90;40.50;;;;;;5051556;28;20432;-68
2021/05/01 12:23:48;;;;;;;1.75;0.57;;;7.90;40.40;;;;;;5051599;28;20048;-68
2021/05/01 12:26:32;;;;;;;;;;;7.90;39.10;;;;;;5052216;28;20107;-68
2021/05/01 12:29:21;;;;;;;1.63;0.50;;;7.70;37.70;;;;;;5051350;28;19911;-68
2021/05/01 12:31:49;;;;;;;0.68;0.50;;;7.40;38.40;;;;;;5047700;28;20049;-68
2021/05/01 12:34:15;;;;;;;0.80;0.60;;;7.40;38.70;;;;;;5051726;28;20032;-68
2021/05/01 12:36:43;;;;;;;3.13;0.50;;;7.30;39.40;;;;;;5051287;28;20029;-68
2021/05/01 12:39:10;;;;;;;0.73;0.50;;;7.30;40.30;;;;;;5054828;28;20472;-68
2021/05/01 12:41:42;;;;;;;0.60;0.50;;;7.40;40.40;;;;;;5055304;28;20032;-68
2021/05/01 12:44:28;;;;;;;0.47;0.47;;;7.50;40.60;;;;;;5055217;28;20053;-68
2021/05/01 12:46:54;;;;;;;0.68;0.50;;;7.60;40.10;;;;;;5054774;28;20566;-68
2021/05/01 12:49:26;;;;;;;0.90;0.50;;;7.60;39.90;;;;;;5053738;28;20374;-68
2021/05/01 12:52:05;;;;;;;1.10;0.70;;;7.80;40.40;;;;;;5054989;28;20036;-68
2021/05/01 12:54:40;;;;;;;15.95;0.70;;;7.90;39.20;;;;;;5055245;28;20107;-68
2021/05/01 12:57:09;;;;;;;2.05;0.45;;;7.90;39.40;;;;;;5055024;28;20112;-68
2021/05/01 12:59:44;;;;;;;2.42;0.60;;;7.90;39.40;;;;;;5055228;28;20497;-68
2021/05/01 13:02:10;;;;;;;1.05;0.60;;;7.80;39.10;;;;;;5054775;28;20025;-68
2021/05/01 13:04:37;;;;;;;4.25;0.60;;;7.80;39.00;;;;;;5055090;28;20116;-68
2021/05/01 13:07:05;;;;;;;2.50;0.70;;;7.80;39.30;;;;;;5054716;28;20071;-68
2021/05/01 13:09:42;;;;;;;3.15;0.52;;;7.70;39.00;;;;;;5055135;28;20392;-69
2021/05/01 13:12:10;;;;;;;0.55;0.52;;;7.80;39.90;;;;;;5054592;28;20095;-69
2021/05/01 13:14:57;;;;;;;1.63;0.77;;;7.90;39.40;;;;;;5054646;28;20032;-67
2021/05/01 13:17:26;;;;;;;1.45;1.05;;;7.90;38.90;;;;;;5054652;28;20087;-67
2021/05/01 13:20:02;;;;;;;4.40;0.65;;;8.00;39.20;;;;;;5054419;28;20033;-68
2021/05/01 13:22:29;;;;;;;6.60;0.80;;;8.00;39.00;;;;;;5053806;28;20043;-64
2021/05/01 13:25:17;;;;;;;4.18;0.82;;;8.30;47.30;;;;;;5054645;28;20036;-67
2021/05/01 13:27:57;;;;;;;0.40;0.40;;;9.60;49.20;;;;;;5054480;28;20029;-68
2021/05/01 13:30:29;;;;;;;1.55;0.65;;;9.20;39.30;;;;;;5054005;28;20090;-67
2021/05/01 13:32:57;;;;;;;1.58;0.65;;;8.60;38.00;;;;;;5053805;28;20040;-72
2021/05/01 13:35:24;;;;;;;0.50;0.40;;;8.20;37.60;;;;;;5053947;28;20067;-66
2021/05/01 13:37:51;;;;;;;0.50;0.50;;;8.00;39.10;;;;;;5056945;28;20032;-66
2021/05/01 13:40:31;;;;;;;0.60;0.40;;;8.00;39.30;;;;;;5053983;28;20021;-66
2021/05/01 13:43:06;;;;;;;1.50;0.80;;;8.00;38.80;;;;;;5052633;28;20104;-66
2021/05/01 13:45:36;;;;;;;1.60;0.57;;;8.10;39.30;;;;;;5053928;28;20504;-66
2021/05/01 13:48:04;;;;;;;2.72;0.65;;;8.00;38.40;;;;;;5053421;28;20080;-66
2021/05/01 13:50:30;;;;;;;0.50;0.40;;;7.90;38.70;;;;;;5053686;28;20029;-66
2021/05/01 13:53:05;;;;;;;1.48;0.50;;;7.80;38.70;;;;;;5053953;28;20075;-66
2021/05/01 13:55:35;;;;;;;1.50;0.47;;;7.80;38.70;;;;;;5053777;28;20100;-66
2021/05/01 13:58:04;;;;;;;0.60;0.50;;;7.70;38.90;;;;;;5053666;28;20032;-67
2021/05/01 14:00:40;;;;;;;2.50;0.50;;;7.60;38.40;;;;;;5053972;28;20582;-66
2021/05/01 14:03:18;;;;;;;0.55;0.50;;;7.50;38.00;;;;;;5053646;28;20025;-66
2021/05/01 14:05:49;;;;;;;0.65;0.50;;;7.50;38.70;;;;;;5053863;28;20082;-66
2021/05/01 14:08:16;;;;;;;2.78;0.82;;;7.40;38.40;;;;;;5053941;28;20025;-67
2021/05/01 14:10:44;;;;;;;0.50;0.47;;;7.40;38.90;;;;;;5053249;28;20033;-67
2021/05/01 14:13:32;;;;;;;0.80;0.47;;;7.50;39.40;;;;;;5053340;28;20064;-67
2021/05/01 14:15:59;;;;;;;0.65;0.50;;;7.50;39.00;;;;;;5053599;28;20099;-68
2021/05/01 14:18:27;;;;;;;2.78;0.60;;;7.50;38.40;;;;;;5053739;28;20036;-68
2021/05/01 14:21:01;;;;;;;0.40;0.40;;;7.40;38.20;;;;;;5053244;28;20091;-68
2021/05/01 14:23:27;;;;;;;0.65;0.40;;;7.30;38.30;;;;;;5053379;28;20029;-67
2021/05/01 14:25:53;;;;;;;0.52;0.50;;;7.30;38.80;;;;;;5053138;28;20032;-67
2021/05/01 14:28:28;;;;;;;0.65;0.40;;;7.20;38.20;;;;;;5053360;28;20025;-67
2021/05/01 14:33:41;;;;;;;0.57;0.57;;;7.10;38.50;;;;;;5053223;28;20032;-67
2021/05/01 14:36:13;;;;;;;0.95;0.40;;;7.20;39.30;;;;;;5053263;28;20021;-67
2021/05/01 14:38:40;;;;;;;0.77;0.47;;;7.20;39.00;;;;;;5053100;28;20017;-68
2021/05/01 14:41:08;;;;;;;0.45;0.45;;;7.30;39.00;;;;;;5052447;28;20087;-68
2021/05/01 14:43:37;;;;;;;0.40;0.40;;;7.30;39.30;;;;;;5052778;28;20087;-67
2021/05/01 14:46:20;;;;;;;0.43;0.40;;;7.30;38.70;;;;;;5049924;28;20491;-68
2021/05/01 14:49:05;;;;;;;0.80;0.52;;;7.30;38.60;;;;;;5052773;28;20480;-68
2021/05/01 14:51:31;;;;;;;1.33;0.70;;;7.30;39.30;;;;;;5053091;28;20040;-69
2021/05/01 14:54:13;;;;;;;1.00;0.55;;;7.30;39.50;;;;;;5053093;28;20029;-67
2021/05/01 14:57:12;;;;;;;0.40;0.40;;;7.30;38.80;;;;;;5052501;28;20040;-67
2021/05/01 14:59:44;;;;;;;0.40;0.40;;;7.30;39.10;;;;;;5052212;28;20078;-67
2021/05/01 15:02:28;;;;;;;0.50;0.50;;;7.30;39.20;;;;;;5052655;28;20027;-67
2021/05/01 15:05:21;;;;;;;0.40;0.40;;;7.40;39.10;;;;;;5052487;28;20429;-68
2021/05/01 15:07:52;;;;;;;0.40;0.40;;;7.40;39.20;;;;;;5052422;28;20021;-68
2021/05/01 15:10:19;;;;;;;1.30;0.65;;;7.40;38.80;;;;;;5052655;28;20033;-68
2021/05/01 15:12:58;;;;;;;0.90;0.50;;;7.40;39.70;;;;;;5052081;28;20055;-68
2021/05/01 15:15:50;;;;;;;0.52;0.52;;;7.50;40.30;;;;;;5052460;28;20032;-68
2021/05/01 15:18:22;;;;;;;0.60;0.60;;;7.40;39.90;;;;;;5052341;28;20024;-68
2021/05/01 15:20:51;;;;;;;0.90;0.50;;;7.40;39.90;;;;;;5052357;28;20358;-68
2021/05/01 15:23:21;;;;;;;0.95;0.70;;;7.40;40.50;;;;;;5052310;28;20032;-68
2021/05/01 15:25:50;;;;;;;0.90;0.70;;;7.40;40.80;;;;;;5052135;28;20476;-68
2021/05/01 15:28:17;;;;;;;1.10;0.60;;;7.50;40.80;;;;;;5052517;28;20037;-68
2021/05/01 15:30:44;;;;;;;3.83;0.70;;;7.50;40.80;;;;;;5052092;28;20047;-68
2021/05/01 15:33:26;;;;;;;4.72;1.17;;;7.50;41.20;;;;;;5051483;28;20021;-68
2021/05/01 15:35:53;;;;;;;3.08;1.20;;;7.50;41.10;;;;;;5051010;28;20029;-67
2021/05/01 15:38:19;;;;;;;3.53;2.10;;;7.50;40.60;;;;;;5052420;28;20025;-68
2021/05/01 15:40:47;;;;;;;0.68;0.50;;;7.50;41.10;;;;;;5052327;28;20474;-67
2021/05/01 15:43:14;;;;;;;0.57;0.57;;;7.60;41.30;;;;;;5052038;28;20063;-68
2021/05/01 15:45:41;;;;;;;0.68;0.63;;;7.60;41.40;;;;;;5052032;28;20017;-68
2021/05/01 15:48:09;;;;;;;2.10;0.60;;;7.60;41.50;;;;;;5051734;28;20075;-67
2021/05/01 15:50:36;;;;;;;0.73;0.57;;;7.70;44.90;;;;;;5051827;28;20036;-68
2021/05/01 15:53:05;;;;;;;2.38;1.00;;;7.80;43.20;;;;;;5051912;28;20029;-68
2021/05/01 15:55:31;;;;;;;1.42;0.70;;;7.80;41.70;;;;;;5051916;28;20481;-67
2021/05/01 15:58:08;;;;;;;3.40;1.63;;;7.70;41.10;;;;;;5051932;28;20059;-67
2021/05/01 16:00:35;;;;;;;0.70;0.70;;;7.60;41.40;;;;;;5052095;28;20111;-67
2021/05/01 16:03:02;;;;;;;1.35;1.15;;;7.60;41.90;;;;;;5051818;28;20029;-68
2021/05/01 16:05:28;;;;;;;1.25;0.80;;;7.50;41.90;;;;;;5051997;28;20043;-68
2021/05/01 16:07:54;;;;;;;1.33;0.40;;;7.50;41.40;;;;;;5051547;28;20559;-68
2021/05/01 16:10:21;;;;;;;0.40;0.40;;;7.40;41.70;;;;;;5051561;28;20123;-68
2021/05/01 16:12:50;;;;;;;0.40;0.40;;;7.30;42.10;;;;;;5054738;28;20099;-68
2021/05/01 16:15:18;;;;;;;0.50;0.45;;;7.40;42.90;;;;;;5055931;28;20029;-68
2021/05/01 16:17:44;;;;;;;0.50;0.50;;;7.40;42.90;;;;;;5055694;28;20024;-68
2021/05/01 16:20:13;;;;;;;1.52;0.40;;;7.50;45.60;;;;;;5055618;28;20124;-68
2021/05/01 16:22:41;;;;;;;2.97;0.40;;;7.50;43.50;;;;;;5055572;28;20021;-68
2021/05/01 16:25:07;;;;;;;1.75;0.43;;;7.50;43.40;;;;;;5055371;28;20032;-68
2021/05/01 16:27:33;;;;;;;1.38;0.60;;;7.40;43.40;;;;;;5055570;28;20059;-67
2021/05/01 16:30:00;;;;;;;2.45;0.40;;;7.40;43.50;;;;;;5054859;28;20488;-67
2021/05/01 16:32:26;;;;;;;0.88;0.47;;;7.30;43.60;;;;;;5054989;28;20420;-68
2021/05/01 16:34:51;;;;;;;0.60;0.60;;;7.30;43.70;;;;;;5052395;28;20017;-67
2021/05/01 16:37:18;;;;;;;0.40;0.40;;;7.20;43.90;;;;;;5055234;28;20029;-67
2021/05/01 16:39:44;;;;;;;2.78;0.40;;;7.20;44.30;;;;;;5054973;28;20021;-67
2021/05/01 16:42:11;;;;;;;1.17;0.50;;;7.20;44.10;;;;;;5054724;28;20021;-67
2021/05/01 16:44:37;;;;;;;0.40;0.40;;;7.20;44.30;;;;;;5054821;28;20061;-67
2021/05/01 16:47:03;;;;;;;1.05;0.57;;;7.20;44.70;;;;;;5054986;28;20044;-67
2021/05/01 16:49:29;;;;;;;0.90;0.40;;;7.20;44.70;;;;;;5055283;28;20033;-67
2021/05/01 16:51:55;;;;;;;0.50;0.50;;;7.20;44.60;;;;;;5054892;28;20147;-67
2021/05/01 16:54:21;;;;;;;2.15;1.05;;;7.20;44.40;;;;;;5054772;28;20611;-67
2021/05/01 16:56:47;;;;;;;1.75;0.70;;;7.20;44.20;;;;;;5054718;28;20103;-67
2021/05/01 16:59:13;;;;;;;2.95;1.35;;;7.20;44.60;;;;;;5054128;28;20051;-67
2021/05/01 17:01:39;;;;;;;0.50;0.50;;;7.20;44.90;;;;;;5054671;28;20104;-66
2021/05/01 17:04:05;;;;;;;0.40;0.40;;;7.10;44.90;;;;;;5054400;28;20025;-67
2021/05/01 17:06:30;;;;;;;2.15;0.50;;;7.20;45.50;;;;;;5054715;28;20021;-67
2021/05/01 17:08:56;;;;;;;2.00;0.60;;;7.10;44.90;;;;;;5054482;28;20029;-67
2021/05/01 17:11:22;;;;;;;0.50;0.50;;;7.10;45.30;;;;;;5054393;28;20041;-67
2021/05/01 17:13:51;;;;;;;0.40;0.40;;;7.10;45.60;;;;;;5054649;28;20036;-67
2021/05/01 17:16:18;;;;;;;0.40;0.40;;;7.00;45.90;;;;;;5054372;28;20025;-67
2021/05/01 17:18:44;;;;;;;0.40;0.40;;;6.90;46.30;;;;;;5054714;28;20075;-68
2021/05/01 17:21:10;;;;;;;1.50;1.20;;;6.90;46.50;;;;;;5054127;28;20025;-67
2021/05/01 17:23:37;;;;;;;1.27;0.55;;;6.90;46.90;;;;;;5053751;28;20025;-67
2021/05/01 17:26:03;;;;;;;0.85;0.40;;;7.00;46.80;;;;;;5054124;28;20024;-67
2021/05/01 17:28:29;;;;;;;0.40;0.40;;;6.90;46.70;;;;;;5054481;28;20032;-67
2021/05/01 17:30:55;;;;;;;1.02;0.55;;;6.90;46.90;;;;;;5054032;28;20361;-67